Forside
METAR-TAF:

METAR-TAF

Lufthavne :

Sky Harbor Airport

Duluth, Minnesota, USA

Breddekreds: 46-43-19N, længdekreds: 092-02-36W, højde: 186 m

Aktuelle vejr

Denne rapport blev lavet for 18 minutter siden, kl. 01:56 UTC
Vind 5 kt fra nordvest
Temperatur -7°C
Fugtighed 48%
Tryk 1019 hPa
Sigt: 16.1 km
Overskyet i en højde af 6000 ft

METAR: KDYT 280156Z AUTO 32005KT 10SM OVC060 M07/M16 A3010 RMK AO2

Tid: 20:14 (02:14 UTC)


TAF: fraværende

Vejrobservationer og prognoser fra mere end 4000 lufthavne (METAR og TAF).

De gule og røde prikker repræsenterer de meteorologiske stationer.

Flyt musen over at se navnet på stationen.

Så klik over at se vejr observationer og prognoser.

At skifte det kort: Klik på de grønne knapper med et sort kors for at zoome ind; på den grønne knap med en bindestreg for at zoome ud; eller på de grønne pile for tilstødende kort.


METAR-TAF: